Time;durP1;ratioP1;P1;durP2;ratioP2;P2;SDS_P1;SDS_P2;PMS_P1;PMS_P2;Temp;Humidity;BMP_temperature;BMP_pressure;BME280_temperature;BME280_humidity;BME280_pressure;Samples;Min_cycle;Max_cycle;Signal;HPM_P1;HPM_P2
2021/06/14 00:02:26;;;;;;;16.40;6.87;;;;;;;;;;5115540;28;20443;-67
2021/06/14 00:04:53;;;;;;;8.30;5.93;;;;;;;;;;5115433;28;20506;-67
2021/06/14 00:07:21;;;;;;;8.13;6.40;;;;;;;;;;5115082;28;20439;-67
2021/06/14 00:09:48;;;;;;;9.87;6.93;;;;;;;;;;5114993;28;20451;-67
2021/06/14 00:12:21;;;;;;;8.67;7.10;;;;;;;;;;5115343;28;20758;-67
2021/06/14 00:14:48;;;;;;;9.43;6.50;;;;;;;;;;5114069;28;20480;-68
2021/06/14 00:17:17;;;;;;;11.70;7.13;;;;;;;;;;5115214;28;20939;-67
2021/06/14 00:19:45;;;;;;;8.83;6.10;;;;;;;;;;5114861;28;20440;-67
2021/06/14 00:22:12;;;;;;;7.60;6.10;;;;;;;;;;5115296;28;20777;-68
2021/06/14 00:24:39;;;;;;;9.23;6.10;;;;;;;;;;5115079;28;20478;-68
2021/06/14 00:27:07;;;;;;;14.90;6.97;;;;;;;;;;5114486;28;20467;-68
2021/06/14 00:29:34;;;;;;;9.23;7.43;;;;;;;;;;5114977;28;20449;-68
2021/06/14 00:32:01;;;;;;;7.90;7.17;;;;;;;;;;5114652;28;20502;-67
2021/06/14 00:34:30;;;;;;;10.93;7.30;;;;;;;;;;5115100;28;20443;-67
2021/06/14 00:36:57;;;;;;;9.23;7.37;;;;;;;;;;5114742;28;20830;-67
2021/06/14 00:39:24;;;;;;;10.13;8.17;;;;;;;;;;5114395;28;20538;-67
2021/06/14 00:41:52;;;;;;;11.30;8.17;;;;;;;;;;5115142;28;20585;-67
2021/06/14 00:44:19;;;;;;;9.27;6.97;;;;;;;;;;5114630;28;20485;-67
2021/06/14 00:46:46;;;;;;;8.70;7.80;;;;;;;;;;5114335;28;20481;-67
2021/06/14 00:49:13;;;;;;;10.40;7.90;;;;;;;;;;5114307;28;20471;-67
2021/06/14 00:51:42;;;;;;;11.87;8.80;;;;;;;;;;5114591;28;20471;-67
2021/06/14 00:54:09;;;;;;;13.40;8.63;;;;;;;;;;5114923;28;20454;-67
2021/06/14 00:56:36;;;;;;;11.00;8.53;;;;;;;;;;5114199;28;20470;-67
2021/06/14 00:59:03;;;;;;;10.20;7.67;;;;;;;;;;5114474;28;20439;-67
2021/06/14 01:01:31;;;;;;;10.83;7.83;;;;;;;;;;5114420;28;20443;-67
2021/06/14 01:03:58;;;;;;;18.03;9.10;;;;;;;;;;5114011;28;20495;-67
2021/06/14 01:06:25;;;;;;;12.27;8.47;;;;;;;;;;5114522;28;20439;-67
2021/06/14 01:08:54;;;;;;;9.87;8.37;;;;;;;;;;5114768;28;20533;-67
2021/06/14 01:11:26;;;;;;;9.70;8.00;;;;;;;;;;5114347;28;20873;-67
2021/06/14 01:13:55;;;;;;;11.13;8.27;;;;;;;;;;5114377;28;20889;-67
2021/06/14 01:16:30;;;;;;;13.20;8.90;;;;;;;;;;5113932;28;20946;-67
2021/06/14 01:19:00;;;;;;;10.20;8.77;;;;;;;;;;5114139;28;20899;-67
2021/06/14 01:21:28;;;;;;;11.90;8.77;;;;;;;;;;5113964;28;20427;-67
2021/06/14 01:24:04;;;;;;;12.27;9.30;;;;;;;;;;5114142;28;20474;-67
2021/06/14 01:26:37;;;;;;;10.20;7.90;;;;;;;;;;5113754;28;20923;-67
2021/06/14 01:29:05;;;;;;;10.63;8.70;;;;;;;;;;5114455;28;20427;-67
2021/06/14 01:31:36;;;;;;;10.30;8.50;;;;;;;;;;5114026;28;20435;-67
2021/06/14 01:34:04;;;;;;;9.97;8.00;;;;;;;;;;5113696;28;20435;-67
2021/06/14 01:36:33;;;;;;;11.53;8.63;;;;;;;;;;5114368;28;20815;-68
2021/06/14 01:39:01;;;;;;;18.63;10.00;;;;;;;;;;5113913;28;20545;-67
2021/06/14 01:41:29;;;;;;;11.93;8.80;;;;;;;;;;5114041;28;20522;-67
2021/06/14 01:43:58;;;;;;;11.83;9.23;;;;;;;;;;5113944;28;20573;-67
2021/06/14 01:46:28;;;;;;;13.43;8.30;;;;;;;;;;5113628;28;20527;-68
2021/06/14 01:48:55;;;;;;;11.40;8.70;;;;;;;;;;5113634;28;20974;-69
2021/06/14 01:51:24;;;;;;;12.67;8.50;;;;;;;;;;5114109;28;20850;-68
2021/06/14 01:54:03;;;;;;;11.17;8.63;;;;;;;;;;5113596;28;20439;-68
2021/06/14 01:56:31;;;;;;;10.80;7.90;;;;;;;;;;5113509;28;20427;-67
2021/06/14 01:59:00;;;;;;;9.97;7.73;;;;;;;;;;5113505;28;20469;-68
2021/06/14 02:01:30;;;;;;;17.97;9.17;;;;;;;;;;5113795;28;20781;-68
2021/06/14 02:03:57;;;;;;;13.33;9.37;;;;;;;;;;5114036;28;20525;-69
2021/06/14 02:06:25;;;;;;;9.80;7.97;;;;;;;;;;5113785;28;21003;-68
2021/06/14 02:08:53;;;;;;;11.73;8.73;;;;;;;;;;5113462;28;20486;-68
2021/06/14 02:11:20;;;;;;;11.57;9.03;;;;;;;;;;5113715;28;20782;-69
2021/06/14 02:13:48;;;;;;;11.03;8.20;;;;;;;;;;5113723;28;20841;-68
2021/06/14 02:16:16;;;;;;;16.30;9.07;;;;;;;;;;5113988;28;20466;-67
2021/06/14 02:18:46;;;;;;;9.20;7.50;;;;;;;;;;5113683;28;20446;-68
2021/06/14 02:21:13;;;;;;;14.77;8.77;;;;;;;;;;5113630;28;20789;-67
2021/06/14 02:23:41;;;;;;;10.80;7.80;;;;;;;;;;5113976;28;20484;-68
2021/06/14 02:26:08;;;;;;;13.27;8.50;;;;;;;;;;5113488;28;20482;-67
2021/06/14 02:28:35;;;;;;;13.00;9.00;;;;;;;;;;5113863;28;20565;-68
2021/06/14 02:31:02;;;;;;;12.63;8.27;;;;;;;;;;5113677;28;20438;-68
2021/06/14 02:33:30;;;;;;;12.37;8.97;;;;;;;;;;5113528;28;20529;-68
2021/06/14 02:35:58;;;;;;;9.10;7.93;;;;;;;;;;5113602;28;20450;-67
2021/06/14 02:38:26;;;;;;;12.77;8.20;;;;;;;;;;5114520;28;20521;-67
2021/06/14 02:40:53;;;;;;;12.83;8.17;;;;;;;;;;5116843;28;20434;-67
2021/06/14 02:43:22;;;;;;;12.77;8.27;;;;;;;;;;5116662;28;20438;-67
2021/06/14 02:45:50;;;;;;;10.23;7.90;;;;;;;;;;5117335;28;20509;-67
2021/06/14 02:48:17;;;;;;;13.00;7.90;;;;;;;;;;5117560;28;20525;-67
2021/06/14 02:50:45;;;;;;;10.60;8.70;;;;;;;;;;5116956;28;20439;-67
2021/06/14 02:53:14;;;;;;;13.27;9.37;;;;;;;;;;5117148;28;20441;-68
2021/06/14 02:55:45;;;;;;;13.50;8.80;;;;;;;;;;5116396;28;20537;-67
2021/06/14 02:58:12;;;;;;;12.60;9.17;;;;;;;;;;5116749;28;20431;-67
2021/06/14 03:00:40;;;;;;;17.33;8.80;;;;;;;;;;5116729;28;20507;-68
2021/06/14 03:03:08;;;;;;;12.17;8.70;;;;;;;;;;5116538;28;20447;-68
2021/06/14 03:05:36;;;;;;;13.57;8.93;;;;;;;;;;5116563;28;20478;-68
2021/06/14 03:08:04;;;;;;;16.90;9.70;;;;;;;;;;5116612;28;20439;-67
2021/06/14 03:10:33;;;;;;;13.20;10.47;;;;;;;;;;5116553;28;20529;-68
2021/06/14 03:13:03;;;;;;;14.93;9.43;;;;;;;;;;5116180;28;20444;-67
2021/06/14 03:15:31;;;;;;;14.00;9.70;;;;;;;;;;5116322;28;20923;-68
2021/06/14 03:18:00;;;;;;;12.07;8.70;;;;;;;;;;5116132;28;20954;-68
2021/06/14 03:20:27;;;;;;;13.23;10.03;;;;;;;;;;5116067;28;20521;-68
2021/06/14 03:22:54;;;;;;;14.97;9.37;;;;;;;;;;5116061;28;20481;-67
2021/06/14 03:25:22;;;;;;;12.70;9.33;;;;;;;;;;5115976;28;20824;-67
2021/06/14 03:27:51;;;;;;;12.77;9.97;;;;;;;;;;5115836;28;20469;-67
2021/06/14 03:30:20;;;;;;;14.77;9.93;;;;;;;;;;5115919;28;20445;-67
2021/06/14 03:32:49;;;;;;;17.10;9.50;;;;;;;;;;5116144;28;20785;-67
2021/06/14 03:35:18;;;;;;;16.43;10.00;;;;;;;;;;5116302;28;20438;-67
2021/06/14 03:37:45;;;;;;;14.07;9.30;;;;;;;;;;5115921;28;20525;-67
2021/06/14 03:40:13;;;;;;;15.57;9.83;;;;;;;;;;5116031;28;20430;-68
2021/06/14 03:42:41;;;;;;;16.00;9.67;;;;;;;;;;5115960;28;20434;-68
2021/06/14 03:45:11;;;;;;;17.90;10.30;;;;;;;;;;5115503;28;20474;-67
2021/06/14 03:47:39;;;;;;;15.23;8.83;;;;;;;;;;5115879;28;20542;-67
2021/06/14 03:50:07;;;;;;;14.07;9.63;;;;;;;;;;5115943;28;20438;-67
2021/06/14 03:52:34;;;;;;;11.10;8.50;;;;;;;;;;5115611;28;20447;-67
2021/06/14 03:55:01;;;;;;;18.50;9.47;;;;;;;;;;5115356;28;20558;-67
2021/06/14 03:57:28;;;;;;;12.30;8.37;;;;;;;;;;5115472;28;20923;-67
2021/06/14 03:59:55;;;;;;;11.63;8.93;;;;;;;;;;5115264;28;20957;-67
2021/06/14 04:02:24;;;;;;;17.53;8.47;;;;;;;;;;5115563;28;20439;-67
2021/06/14 04:04:53;;;;;;;9.47;7.43;;;;;;;;;;5115120;28;20552;-67
2021/06/14 04:07:21;;;;;;;13.47;8.70;;;;;;;;;;5115601;28;20449;-68
2021/06/14 04:09:48;;;;;;;9.07;7.70;;;;;;;;;;5115157;28;20880;-67
2021/06/14 04:12:16;;;;;;;13.50;8.40;;;;;;;;;;5115042;28;20482;-68
2021/06/14 04:14:44;;;;;;;11.37;8.00;;;;;;;;;;5115284;28;20443;-68
2021/06/14 04:17:12;;;;;;;9.60;7.50;;;;;;;;;;5117429;27;20533;-67
2021/06/14 04:19:41;;;;;;;14.23;7.20;;;;;;;;;;5123522;27;20439;-68
2021/06/14 04:22:08;;;;;;;12.53;7.63;;;;;;;;;;5115091;28;20439;-67
2021/06/14 04:24:36;;;;;;;12.20;8.10;;;;;;;;;;5114726;28;20453;-68
2021/06/14 04:27:03;;;;;;;17.30;9.13;;;;;;;;;;5118961;27;20474;-68
2021/06/14 04:29:30;;;;;;;18.70;7.47;;;;;;;;;;5136421;27;20469;-68
2021/06/14 04:31:57;;;;;;;10.67;7.70;;;;;;;;;;5135516;27;20445;-68
2021/06/14 04:34:25;;;;;;;12.30;7.67;;;;;;;;;;5135189;27;20440;-68
2021/06/14 04:36:53;;;;;;;26.10;7.50;;;;;;;;;;5135607;27;20529;-68
2021/06/14 04:39:20;;;;;;;13.33;7.60;;;;;;;;;;5135354;27;20481;-68
2021/06/14 04:41:48;;;;;;;15.50;7.20;;;;;;;;;;5135744;27;20440;-68
2021/06/14 04:44:15;;;;;;;10.27;7.97;;;;;;;;;;5135443;27;20464;-68
2021/06/14 04:46:42;;;;;;;10.83;7.40;;;;;;;;;;5134156;27;20519;-68
2021/06/14 04:49:09;;;;;;;14.70;7.40;;;;;;;;;;5114837;28;20441;-68
2021/06/14 04:51:37;;;;;;;14.93;7.80;;;;;;;;;;5114255;28;20533;-67
2021/06/14 04:54:05;;;;;;;13.13;7.77;;;;;;;;;;5114264;28;20932;-67
2021/06/14 04:56:33;;;;;;;14.17;8.33;;;;;;;;;;5114548;28;20449;-67
2021/06/14 04:59:00;;;;;;;10.83;7.43;;;;;;;;;;5114111;28;20521;-66
2021/06/14 05:01:27;;;;;;;12.27;8.03;;;;;;;;;;5113989;28;20538;-66
2021/06/14 05:03:55;;;;;;;8.50;7.17;;;;;;;;;;5114284;28;20434;-66
2021/06/14 05:06:22;;;;;;;10.20;7.53;;;;;;;;;;5114083;28;20486;-66
2021/06/14 05:08:50;;;;;;;16.10;7.63;;;;;;;;;;5114458;28;20829;-66
2021/06/14 05:11:18;;;;;;;13.67;7.60;;;;;;;;;;5114042;28;20446;-66
2021/06/14 05:13:46;;;;;;;12.80;7.97;;;;;;;;;;5113930;28;20973;-66
2021/06/14 05:16:13;;;;;;;12.80;7.47;;;;;;;;;;5114307;28;20470;-66
2021/06/14 05:18:40;;;;;;;13.57;8.03;;;;;;;;;;5114105;28;20435;-67
2021/06/14 05:21:07;;;;;;;10.30;7.67;;;;;;;;;;5114094;28;20928;-66
2021/06/14 05:23:34;;;;;;;13.50;7.80;;;;;;;;;;5114207;28;20521;-66
2021/06/14 05:26:02;;;;;;;9.90;7.27;;;;;;;;;;5114298;28;20475;-66
2021/06/14 05:28:30;;;;;;;12.73;7.47;;;;;;;;;;5114476;28;20884;-67
2021/06/14 05:30:58;;;;;;;12.93;7.20;;;;;;;;;;5114247;28;20435;-73
2021/06/14 05:33:25;;;;;;;13.83;6.97;;;;;;;;;;5114177;28;20531;-66
2021/06/14 05:35:52;;;;;;;9.27;6.80;;;;;;;;;;5114023;28;20435;-65
2021/06/14 05:38:19;;;;;;;9.07;7.40;;;;;;;;;;5114145;28;20534;-65
2021/06/14 05:40:47;;;;;;;12.77;7.00;;;;;;;;;;5113989;28;20445;-65
2021/06/14 05:43:14;;;;;;;10.30;7.63;;;;;;;;;;5113614;28;20943;-65
2021/06/14 05:45:42;;;;;;;10.70;6.60;;;;;;;;;;5114095;28;20482;-66
2021/06/14 05:48:10;;;;;;;12.83;7.27;;;;;;;;;;5114706;28;20439;-67
2021/06/14 05:50:38;;;;;;;18.60;8.03;;;;;;;;;;5113513;28;20443;-66
2021/06/14 05:53:05;;;;;;;19.30;8.17;;;;;;;;;;5113848;28;20889;-66
2021/06/14 05:55:32;;;;;;;10.63;6.63;;;;;;;;;;5113822;28;20439;-66
2021/06/14 05:57:59;;;;;;;17.70;7.93;;;;;;;;;;5114010;28;20439;-66
2021/06/14 06:00:26;;;;;;;16.93;7.70;;;;;;;;;;5113430;28;20928;-65
2021/06/14 06:02:55;;;;;;;12.87;8.47;;;;;;;;;;5113423;28;20942;-66
2021/06/14 06:05:22;;;;;;;14.37;7.17;;;;;;;;;;5113655;28;20501;-65
2021/06/14 06:07:49;;;;;;;8.87;7.03;;;;;;;;;;5113226;28;20431;-65
2021/06/14 06:10:17;;;;;;;19.63;9.53;;;;;;;;;;5113711;28;20460;-65
2021/06/14 06:12:44;;;;;;;14.23;7.97;;;;;;;;;;5113765;28;20563;-66
2021/06/14 06:15:12;;;;;;;17.67;7.73;;;;;;;;;;5118183;28;20462;-66
2021/06/14 06:17:39;;;;;;;12.83;6.50;;;;;;;;;;5117528;28;20439;-66
2021/06/14 06:20:10;;;;;;;14.53;7.40;;;;;;;;;;5117827;28;20449;-66
2021/06/14 06:22:37;;;;;;;14.20;7.63;;;;;;;;;;5117461;28;20431;-66
2021/06/14 06:25:05;;;;;;;17.47;6.10;;;;;;;;;;5116977;28;20481;-65
2021/06/14 06:27:32;;;;;;;8.20;6.00;;;;;;;;;;5117130;28;20553;-65
2021/06/14 06:30:00;;;;;;;7.70;5.20;;;;;;;;;;5117487;28;20793;-66
2021/06/14 06:32:27;;;;;;;6.87;5.43;;;;;;;;;;5117252;28;20485;-65
2021/06/14 06:34:54;;;;;;;6.13;4.30;;;;;;;;;;5117195;28;20438;-65
2021/06/14 06:37:23;;;;;;;7.93;4.17;;;;;;;;;;5117191;28;20874;-65
2021/06/14 06:39:50;;;;;;;8.13;4.43;;;;;;;;;;5117341;28;20956;-65
2021/06/14 06:42:17;;;;;;;16.20;5.40;;;;;;;;;;5117080;28;20444;-65
2021/06/14 06:44:44;;;;;;;15.37;5.00;;;;;;;;;;5117018;28;20441;-65
2021/06/14 06:47:12;;;;;;;7.97;5.07;;;;;;;;;;5116929;28;20471;-66
2021/06/14 06:49:39;;;;;;;13.83;5.33;;;;;;;;;;5117132;28;20435;-65
2021/06/14 06:52:06;;;;;;;9.90;5.30;;;;;;;;;;5117137;28;20435;-65
2021/06/14 06:54:35;;;;;;;9.30;5.20;;;;;;;;;;5116842;28;20529;-65
2021/06/14 06:57:02;;;;;;;6.83;4.77;;;;;;;;;;5116818;28;20469;-65
2021/06/14 06:59:29;;;;;;;5.87;5.30;;;;;;;;;;5116763;28;20858;-65
2021/06/14 07:01:57;;;;;;;8.03;4.80;;;;;;;;;;5116781;28;20447;-65
2021/06/14 07:04:24;;;;;;;8.73;4.50;;;;;;;;;;5116380;28;20438;-66
2021/06/14 07:06:52;;;;;;;9.60;4.87;;;;;;;;;;5116230;28;21005;-66
2021/06/14 07:09:19;;;;;;;7.77;5.17;;;;;;;;;;5116620;28;20939;-66
2021/06/14 07:11:48;;;;;;;10.63;4.70;;;;;;;;;;5116478;28;20443;-66
2021/06/14 07:14:15;;;;;;;6.00;4.20;;;;;;;;;;5116396;28;20446;-65
2021/06/14 07:16:42;;;;;;;7.20;4.23;;;;;;;;;;5116828;28;20791;-66
2021/06/14 07:19:09;;;;;;;9.10;5.13;;;;;;;;;;5116454;28;20435;-66
2021/06/14 07:21:37;;;;;;;7.30;5.10;;;;;;;;;;5116380;28;20439;-66
2021/06/14 07:24:04;;;;;;;10.43;5.10;;;;;;;;;;5115759;28;20540;-66
2021/06/14 07:26:32;;;;;;;12.70;4.53;;;;;;;;;;5116233;28;20489;-66
2021/06/14 07:29:01;;;;;;;10.60;4.80;;;;;;;;;;5116294;28;20431;-66
2021/06/14 07:31:29;;;;;;;8.63;4.77;;;;;;;;;;5116191;28;20440;-67
2021/06/14 07:33:58;;;;;;;7.07;4.90;;;;;;;;;;5115954;28;20439;-65
2021/06/14 07:36:25;;;;;;;6.17;4.40;;;;;;;;;;5116464;28;20447;-66
2021/06/14 07:38:52;;;;;;;8.73;4.60;;;;;;;;;;5115904;28;20533;-66
2021/06/14 07:41:20;;;;;;;6.83;4.50;;;;;;;;;;5115810;28;20439;-65
2021/06/14 07:43:47;;;;;;;5.57;4.07;;;;;;;;;;5115943;28;20492;-66
2021/06/14 07:46:15;;;;;;;10.80;5.00;;;;;;;;;;5115395;28;20566;-65
2021/06/14 07:48:42;;;;;;;9.77;5.00;;;;;;;;;;5115804;28;20431;-66
2021/06/14 07:51:10;;;;;;;5.40;4.60;;;;;;;;;;5115437;28;20453;-66
2021/06/14 07:53:38;;;;;;;11.27;4.87;;;;;;;;;;5115409;28;21007;-65
2021/06/14 07:56:06;;;;;;;8.67;4.73;;;;;;;;;;5115643;28;20442;-66
2021/06/14 07:58:34;;;;;;;10.03;4.43;;;;;;;;;;5115282;28;20445;-66
2021/06/14 08:01:02;;;;;;;9.00;4.53;;;;;;;;;;5115950;28;20448;-66
2021/06/14 08:03:31;;;;;;;7.13;4.80;;;;;;;;;;5115546;28;20493;-66
2021/06/14 08:05:59;;;;;;;5.30;4.80;;;;;;;;;;5114996;28;20508;-66
2021/06/14 08:08:27;;;;;;;8.93;5.37;;;;;;;;;;5115475;28;20537;-66
2021/06/14 08:10:55;;;;;;;6.10;4.67;;;;;;;;;;5115293;28;20447;-66
2021/06/14 08:13:22;;;;;;;6.97;5.00;;;;;;;;;;5114957;28;20452;-65
2021/06/14 08:15:49;;;;;;;8.00;4.87;;;;;;;;;;5115764;28;20469;-65
2021/06/14 08:18:29;;;;;;;6.27;5.67;;;;;;;;;;5114835;28;20441;-66
2021/06/14 08:26:33;;;;;;;6.00;4.13;;;;;;;;;;5114730;28;20450;-65
2021/06/14 08:29:01;;;;;;;6.53;4.80;;;;;;;;;;5114901;28;20836;-66
2021/06/14 08:31:30;;;;;;;6.77;4.23;;;;;;;;;;5114674;28;20524;-66
2021/06/14 08:33:57;;;;;;;7.97;4.10;;;;;;;;;;5115117;28;20485;-66
2021/06/14 08:36:26;;;;;;;4.63;4.23;;;;;;;;;;5113956;28;20437;-66
2021/06/14 08:38:53;;;;;;;8.93;5.23;;;;;;;;;;5115263;28;20551;-66
2021/06/14 08:41:20;;;;;;;7.27;4.40;;;;;;;;;;5114752;28;20441;-66
2021/06/14 08:43:49;;;;;;;10.50;5.37;;;;;;;;;;5115073;28;20441;-66
2021/06/14 08:46:16;;;;;;;13.47;5.80;;;;;;;;;;5114302;28;20478;-65
2021/06/14 08:48:44;;;;;;;5.90;4.57;;;;;;;;;;5114691;28;20885;-66
2021/06/14 08:51:12;;;;;;;7.73;4.30;;;;;;;;;;5114628;28;20528;-66
2021/06/14 08:53:40;;;;;;;6.00;4.40;;;;;;;;;;5114590;28;20480;-66
2021/06/14 08:56:07;;;;;;;8.37;5.40;;;;;;;;;;5115188;28;20445;-66
2021/06/14 08:58:35;;;;;;;6.13;4.33;;;;;;;;;;5114196;28;20532;-66
2021/06/14 09:01:02;;;;;;;6.87;3.97;;;;;;;;;;5114632;28;20443;-66
2021/06/14 09:03:30;;;;;;;6.20;4.07;;;;;;;;;;5114921;28;20440;-66
2021/06/14 09:05:57;;;;;;;7.77;5.20;;;;;;;;;;5114993;28;20437;-66
2021/06/14 09:08:25;;;;;;;7.43;4.63;;;;;;;;;;5114303;28;20557;-66
2021/06/14 09:10:54;;;;;;;8.00;4.83;;;;;;;;;;5113964;28;20434;-67
2021/06/14 09:13:22;;;;;;;8.63;4.90;;;;;;;;;;5114609;28;20442;-66
2021/06/14 09:15:52;;;;;;;10.53;5.40;;;;;;;;;;5114260;28;20443;-66
2021/06/14 09:18:20;;;;;;;7.90;5.00;;;;;;;;;;5113922;28;20502;-66
2021/06/14 09:20:55;;;;;;;7.03;4.70;;;;;;;;;;5114060;28;20437;-67
2021/06/14 09:23:22;;;;;;;7.17;4.50;;;;;;;;;;5114285;28;20445;-66
2021/06/14 09:25:50;;;;;;;6.70;4.93;;;;;;;;;;5114179;28;20448;-66
2021/06/14 09:28:18;;;;;;;9.00;4.27;;;;;;;;;;5114016;28;20525;-66
2021/06/14 09:30:45;;;;;;;7.93;5.20;;;;;;;;;;5113680;28;20441;-66
2021/06/14 09:33:22;;;;;;;8.40;5.67;;;;;;;;;;5114048;28;20460;-66
2021/06/14 09:35:49;;;;;;;7.03;4.50;;;;;;;;;;5114116;28;20507;-65
2021/06/14 09:38:17;;;;;;;11.60;5.17;;;;;;;;;;5113828;28;20871;-66
2021/06/14 09:40:45;;;;;;;10.83;4.90;;;;;;;;;;5114157;28;20586;-66
2021/06/14 09:43:24;;;;;;;5.77;4.70;;;;;;;;;;5113624;28;20443;-65
2021/06/14 09:45:51;;;;;;;12.93;5.70;;;;;;;;;;5114211;28;20450;-66
2021/06/14 09:48:18;;;;;;;10.53;5.27;;;;;;;;;;5116286;28;20488;-66
2021/06/14 09:50:47;;;;;;;7.83;5.20;;;;;;;;;;5117776;28;20564;-66
2021/06/14 09:53:15;;;;;;;6.17;4.70;;;;;;;;;;5118099;28;20434;-66
2021/06/14 09:55:43;;;;;;;12.20;5.00;;;;;;;;;;5118024;28;20435;-66
2021/06/14 09:58:17;;;;;;;8.07;5.30;;;;;;;;;;5117589;28;20446;-67
2021/06/14 10:00:49;;;;;;;7.90;4.77;;;;;;;;;;5117917;28;20459;-66
2021/06/14 10:03:16;;;;;;;11.20;4.87;;;;;;;;;;5117849;28;20466;-66
2021/06/14 10:05:47;;;;;;;5.33;4.20;;;;;;;;;;5117499;28;20444;-66
2021/06/14 10:08:23;;;;;;;11.53;4.77;;;;;;;;;;5117646;28;20497;-66
2021/06/14 10:11:00;;;;;;;7.07;4.40;;;;;;;;;;5117762;28;20462;-65
2021/06/14 10:13:28;;;;;;;14.03;5.60;;;;;;;;;;5118266;28;20469;-66
2021/06/14 10:15:59;;;;;;;17.33;5.30;;;;;;;;;;5117736;28;20461;-65
2021/06/14 10:18:30;;;;;;;5.90;5.00;;;;;;;;;;5117616;28;20430;-66
2021/06/14 10:20:58;;;;;;;7.00;4.90;;;;;;;;;;5117686;28;20449;-65
2021/06/14 10:23:25;;;;;;;10.03;4.70;;;;;;;;;;5117195;28;20434;-65
2021/06/14 10:25:56;;;;;;;9.10;4.07;;;;;;;;;;5117433;28;20892;-66
2021/06/14 10:28:24;;;;;;;8.83;4.70;;;;;;;;;;5117077;28;20482;-66
2021/06/14 10:30:51;;;;;;;7.63;4.50;;;;;;;;;;5116981;28;20563;-66
2021/06/14 10:33:22;;;;;;;7.73;4.33;;;;;;;;;;5116945;28;20529;-66
2021/06/14 10:35:49;;;;;;;11.43;4.40;;;;;;;;;;5118108;28;20453;-67
2021/06/14 10:38:18;;;;;;;7.90;4.63;;;;;;;;;;5117388;28;20533;-66
2021/06/14 10:40:47;;;;;;;7.90;4.00;;;;;;;;;;5117673;28;20435;-65
2021/06/14 10:43:14;;;;;;;8.83;4.20;;;;;;;;;;5117007;28;20446;-65
2021/06/14 10:45:41;;;;;;;7.80;3.90;;;;;;;;;;5116980;28;20802;-65
2021/06/14 10:48:11;;;;;;;3.70;3.33;;;;;;;;;;5116587;28;20570;-66
2021/06/14 10:50:39;;;;;;;6.47;3.83;;;;;;;;;;5116881;28;20440;-66
2021/06/14 10:53:07;;;;;;;5.93;4.40;;;;;;;;;;5117178;28;20495;-65
2021/06/14 10:55:35;;;;;;;6.60;4.23;;;;;;;;;;5116905;28;20803;-67
2021/06/14 10:58:04;;;;;;;6.00;4.10;;;;;;;;;;5117660;28;20446;-66
2021/06/14 11:00:32;;;;;;;6.50;3.93;;;;;;;;;;5116366;28;20449;-66
2021/06/14 11:03:00;;;;;;;7.57;3.93;;;;;;;;;;5116416;28;20880;-66
2021/06/14 11:05:32;;;;;;;4.10;3.60;;;;;;;;;;5116648;28;20530;-66
2021/06/14 11:08:10;;;;;;;6.57;3.90;;;;;;;;;;5116338;28;20822;-66
2021/06/14 11:10:37;;;;;;;9.17;4.50;;;;;;;;;;5117079;28;20454;-66
2021/06/14 11:13:08;;;;;;;4.90;4.20;;;;;;;;;;5116373;28;20446;-66
2021/06/14 11:15:36;;;;;;;5.70;3.90;;;;;;;;;;5116413;28;20439;-66
2021/06/14 11:18:06;;;;;;;6.90;3.90;;;;;;;;;;5116324;28;20448;-66
2021/06/14 11:20:34;;;;;;;6.80;4.20;;;;;;;;;;5117226;28;20442;-66
2021/06/14 11:23:03;;;;;;;6.77;3.40;;;;;;;;;;5116364;28;20952;-66
2021/06/14 11:25:31;;;;;;;6.67;4.00;;;;;;;;;;5116886;28;20438;-66
2021/06/14 11:27:59;;;;;;;4.80;4.00;;;;;;;;;;5115660;28;20493;-66
2021/06/14 11:30:27;;;;;;;7.80;3.93;;;;;;;;;;5116775;28;20460;-66
2021/06/14 11:32:54;;;;;;;5.47;3.40;;;;;;;;;;5116084;28;20444;-66
2021/06/14 11:35:22;;;;;;;3.87;3.37;;;;;;;;;;5115773;28;20440;-66
2021/06/14 11:37:50;;;;;;;5.33;3.63;;;;;;;;;;5115609;28;20439;-66
2021/06/14 11:40:25;;;;;;;4.90;3.50;;;;;;;;;;5116219;28;20438;-66
2021/06/14 11:42:54;;;;;;;5.83;3.97;;;;;;;;;;5115660;28;20490;-66
2021/06/14 11:45:28;;;;;;;4.20;3.43;;;;;;;;;;5116201;28;20467;-66
2021/06/14 11:47:56;;;;;;;5.23;3.43;;;;;;;;;;5115769;28;20476;-65
2021/06/14 11:50:24;;;;;;;4.80;4.10;;;;;;;;;;5115733;28;20441;-65
2021/06/14 11:52:58;;;;;;;6.60;4.03;;;;;;;;;;5115737;28;20475;-65
2021/06/14 11:55:27;;;;;;;4.50;3.60;;;;;;;;;;5115885;28;20442;-66
2021/06/14 11:57:56;;;;;;;4.40;3.90;;;;;;;;;;5115621;28;20453;-65
2021/06/14 12:00:28;;;;;;;4.57;3.87;;;;;;;;;;5115634;28;20447;-65
2021/06/14 12:02:55;;;;;;;4.40;4.00;;;;;;;;;;5115172;28;20444;-65
2021/06/14 12:05:30;;;;;;;8.20;3.37;;;;;;;;;;5115885;28;20439;-65
2021/06/14 12:07:57;;;;;;;4.10;3.57;;;;;;;;;;5115639;28;20466;-66
2021/06/14 12:10:25;;;;;;;6.07;3.93;;;;;;;;;;5115795;28;20451;-65
2021/06/14 12:13:04;;;;;;;16.10;5.57;;;;;;;;;;5116102;28;20439;-66
2021/06/14 12:15:32;;;;;;;4.17;3.63;;;;;;;;;;5115516;28;20427;-65
2021/06/14 12:17:59;;;;;;;5.50;3.83;;;;;;;;;;5114817;28;20920;-66
2021/06/14 12:20:28;;;;;;;7.70;3.60;;;;;;;;;;5115247;28;20768;-65
2021/06/14 12:23:03;;;;;;;6.73;3.70;;;;;;;;;;5115760;28;20448;-66
2021/06/14 12:25:30;;;;;;;3.23;2.93;;;;;;;;;;5114753;28;20939;-65
2021/06/14 12:28:02;;;;;;;7.30;3.97;;;;;;;;;;5115117;28;20461;-65
2021/06/14 12:30:30;;;;;;;4.20;3.33;;;;;;;;;;5115078;28;20409;-65
2021/06/14 12:32:58;;;;;;;8.27;3.73;;;;;;;;;;5114933;28;20409;-65
2021/06/14 12:35:26;;;;;;;3.90;3.60;;;;;;;;;;5114846;28;20443;-65
2021/06/14 12:37:53;;;;;;;3.90;3.10;;;;;;;;;;5114771;28;20443;-65
2021/06/14 12:40:21;;;;;;;4.20;3.40;;;;;;;;;;5114467;28;20466;-65
2021/06/14 12:42:55;;;;;;;4.50;3.50;;;;;;;;;;5114775;28;20436;-65
2021/06/14 12:45:24;;;;;;;6.60;3.60;;;;;;;;;;5114807;28;20536;-64
2021/06/14 12:47:51;;;;;;;7.23;3.30;;;;;;;;;;5114910;28;20502;-67
2021/06/14 12:50:22;;;;;;;3.90;3.20;;;;;;;;;;5114612;28;20437;-67
2021/06/14 12:52:49;;;;;;;4.10;3.03;;;;;;;;;;5114268;28;20438;-67
2021/06/14 12:55:17;;;;;;;8.57;3.50;;;;;;;;;;5114056;28;20932;-67
2021/06/14 12:57:45;;;;;;;4.20;3.30;;;;;;;;;;5114468;28;20867;-67
2021/06/14 13:00:14;;;;;;;10.03;3.30;;;;;;;;;;5114083;28;20443;-67
2021/06/14 13:02:43;;;;;;;4.47;3.93;;;;;;;;;;5114783;28;20518;-67
2021/06/14 13:05:11;;;;;;;7.60;3.53;;;;;;;;;;5114025;28;20431;-68
2021/06/14 13:07:38;;;;;;;6.80;3.63;;;;;;;;;;5113906;28;20545;-67
2021/06/14 13:10:14;;;;;;;6.33;3.83;;;;;;;;;;5113790;28;20474;-67
2021/06/14 13:12:41;;;;;;;7.00;3.33;;;;;;;;;;5119139;27;20430;-67
2021/06/14 13:15:13;;;;;;;2.93;2.60;;;;;;;;;;5133796;27;20452;-67
2021/06/14 13:17:40;;;;;;;4.13;3.17;;;;;;;;;;5134617;27;20754;-67
2021/06/14 13:20:09;;;;;;;4.07;3.53;;;;;;;;;;5134724;27;20443;-66
2021/06/14 13:22:37;;;;;;;6.00;2.97;;;;;;;;;;5134015;27;20416;-67
2021/06/14 13:25:05;;;;;;;4.23;3.00;;;;;;;;;;5134606;27;20499;-66
2021/06/14 13:27:33;;;;;;;5.60;3.40;;;;;;;;;;5134130;27;20566;-66
2021/06/14 13:30:00;;;;;;;4.70;3.23;;;;;;;;;;5134155;27;20537;-66
2021/06/14 13:32:32;;;;;;;4.57;3.00;;;;;;;;;;5134676;27;20544;-66
2021/06/14 13:35:00;;;;;;;4.03;3.53;;;;;;;;;;5134135;28;20432;-67
2021/06/14 13:37:38;;;;;;;7.93;3.80;;;;;;;;;;5134192;28;20468;-67
2021/06/14 13:40:09;;;;;;;6.00;3.40;;;;;;;;;;5134062;28;20532;-66
2021/06/14 13:42:42;;;;;;;8.17;3.47;;;;;;;;;;5134597;28;20507;-67
2021/06/14 13:45:10;;;;;;;4.33;3.43;;;;;;;;;;5134648;28;20783;-67
2021/06/14 13:47:37;;;;;;;6.40;3.33;;;;;;;;;;5135006;28;20439;-67
2021/06/14 13:50:08;;;;;;;3.60;3.30;;;;;;;;;;5134071;28;20535;-67
2021/06/14 13:52:35;;;;;;;4.20;3.03;;;;;;;;;;5134067;28;20945;-67
2021/06/14 13:55:05;;;;;;;5.13;3.30;;;;;;;;;;5134335;28;20544;-66
2021/06/14 13:57:33;;;;;;;4.00;2.83;;;;;;;;;;5134346;28;20783;-67
2021/06/14 14:00:05;;;;;;;9.10;3.43;;;;;;;;;;5134001;28;20968;-67
2021/06/14 14:02:32;;;;;;;7.43;3.60;;;;;;;;;;5133850;28;20945;-66
2021/06/14 14:05:00;;;;;;;3.57;3.27;;;;;;;;;;5134661;28;20758;-67
2021/06/14 14:07:27;;;;;;;6.80;3.00;;;;;;;;;;5133800;28;20531;-66
2021/06/14 14:09:54;;;;;;;2.90;2.57;;;;;;;;;;5134458;28;20583;-66
2021/06/14 14:12:23;;;;;;;3.70;3.20;;;;;;;;;;5133962;28;20445;-67
2021/06/14 14:14:50;;;;;;;2.60;2.40;;;;;;;;;;5133790;28;20930;-66
2021/06/14 14:17:18;;;;;;;6.10;2.77;;;;;;;;;;5134046;28;20437;-66
2021/06/14 14:19:50;;;;;;;6.87;3.30;;;;;;;;;;5133679;28;20457;-67
2021/06/14 14:22:17;;;;;;;4.90;3.00;;;;;;;;;;5133540;28;20483;-66
2021/06/14 14:24:44;;;;;;;7.07;3.43;;;;;;;;;;5133858;28;20447;-66
2021/06/14 14:27:12;;;;;;;4.53;3.23;;;;;;;;;;5133713;27;20486;-66
2021/06/14 14:29:40;;;;;;;6.20;3.10;;;;;;;;;;5134333;28;20564;-67
2021/06/14 14:32:09;;;;;;;7.30;3.00;;;;;;;;;;5134672;28;20526;-66
2021/06/14 14:34:38;;;;;;;5.63;3.30;;;;;;;;;;5135670;27;20448;-66
2021/06/14 14:37:05;;;;;;;5.03;3.27;;;;;;;;;;5137343;27;20485;-65
2021/06/14 14:39:35;;;;;;;6.40;3.73;;;;;;;;;;5137234;27;21037;-65
2021/06/14 14:42:05;;;;;;;3.50;3.20;;;;;;;;;;5137295;27;20438;-67
2021/06/14 14:44:35;;;;;;;6.53;3.50;;;;;;;;;;5137283;27;20538;-67
2021/06/14 14:47:10;;;;;;;6.00;3.20;;;;;;;;;;5136914;27;20477;-66
2021/06/14 14:49:37;;;;;;;8.37;3.53;;;;;;;;;;5130084;27;20507;-66
2021/06/14 14:52:05;;;;;;;4.00;3.60;;;;;;;;;;5117017;28;20452;-67